sensor_id;sensor_type;location;lat;lon;timestamp;P1;P2;P0
65973;PMS5003;52729;54.906;73.316;2022-07-10T00:00:46;18.00;18.00;8.00
65973;PMS5003;52729;54.906;73.316;2022-07-10T00:03:57;16.25;16.25;8.50
65973;PMS5003;52729;54.906;73.316;2022-07-10T00:06:58;15.00;15.00;8.00
65973;PMS5003;52729;54.906;73.316;2022-07-10T00:10:03;15.75;15.75;7.25
65973;PMS5003;52729;54.906;73.316;2022-07-10T00:13:14;18.00;17.00;8.00
65973;PMS5003;52729;54.906;73.316;2022-07-10T00:16:26;19.00;18.25;9.25
65973;PMS5003;52729;54.906;73.316;2022-07-10T00:19:27;17.00;16.50;8.00
65973;PMS5003;52729;54.906;73.316;2022-07-10T00:22:28;19.75;18.75;9.00
65973;PMS5003;52729;54.906;73.316;2022-07-10T00:25:29;18.50;17.50;9.00
65973;PMS5003;52729;54.906;73.316;2022-07-10T00:28:30;19.00;18.00;9.00
65973;PMS5003;52729;54.906;73.316;2022-07-10T00:31:37;18.00;17.00;8.00
65973;PMS5003;52729;54.906;73.316;2022-07-10T00:34:38;18.50;17.50;8.00
65973;PMS5003;52729;54.906;73.316;2022-07-10T00:37:49;18.00;17.00;7.00
65973;PMS5003;52729;54.906;73.316;2022-07-10T00:40:55;19.00;18.00;8.00
65973;PMS5003;52729;54.906;73.316;2022-07-10T00:43:59;17.00;17.00;7.00
65973;PMS5003;52729;54.906;73.316;2022-07-10T00:47:05;17.00;16.00;6.50
65973;PMS5003;52729;54.906;73.316;2022-07-10T00:50:16;14.00;14.00;7.00
65973;PMS5003;52729;54.906;73.316;2022-07-10T00:53:17;13.00;13.00;6.00
65973;PMS5003;52729;54.906;73.316;2022-07-10T00:56:19;14.00;13.75;6.75
65973;PMS5003;52729;54.906;73.316;2022-07-10T00:59:27;17.00;15.00;9.50
65973;PMS5003;52729;54.906;73.316;2022-07-10T01:02:28;19.25;17.25;8.25
65973;PMS5003;52729;54.906;73.316;2022-07-10T01:05:31;18.00;17.00;7.75
65973;PMS5003;52729;54.906;73.316;2022-07-10T01:08:32;16.00;15.00;7.00
65973;PMS5003;52729;54.906;73.316;2022-07-10T01:11:40;18.00;16.00;7.00
65973;PMS5003;52729;54.906;73.316;2022-07-10T01:14:41;16.50;16.50;7.00
65973;PMS5003;52729;54.906;73.316;2022-07-10T01:17:48;16.75;16.75;7.75
65973;PMS5003;52729;54.906;73.316;2022-07-10T01:20:53;16.00;15.00;7.00
65973;PMS5003;52729;54.906;73.316;2022-07-10T01:23:55;16.00;15.00;7.50
65973;PMS5003;52729;54.906;73.316;2022-07-10T01:26:56;14.00;13.00;5.25
65973;PMS5003;52729;54.906;73.316;2022-07-10T01:30:07;14.00;14.00;7.00
65973;PMS5003;52729;54.906;73.316;2022-07-10T01:33:09;16.50;16.50;9.00
65973;PMS5003;52729;54.906;73.316;2022-07-10T01:36:10;16.00;16.00;8.00
65973;PMS5003;52729;54.906;73.316;2022-07-10T01:39:11;17.00;17.00;8.00
65973;PMS5003;52729;54.906;73.316;2022-07-10T01:42:12;18.00;17.00;7.00
65973;PMS5003;52729;54.906;73.316;2022-07-10T01:45:15;16.50;15.50;6.00
65973;PMS5003;52729;54.906;73.316;2022-07-10T01:48:16;16.75;15.50;7.50
65973;PMS5003;52729;54.906;73.316;2022-07-10T01:51:17;16.00;15.50;7.00
65973;PMS5003;52729;54.906;73.316;2022-07-10T01:54:18;17.00;16.00;8.25
65973;PMS5003;52729;54.906;73.316;2022-07-10T01:57:20;16.00;16.00;8.00
65973;PMS5003;52729;54.906;73.316;2022-07-10T02:00:21;18.00;16.00;8.75
65973;PMS5003;52729;54.906;73.316;2022-07-10T02:03:26;17.00;15.00;7.00
65973;PMS5003;52729;54.906;73.316;2022-07-10T02:06:45;18.25;16.00;8.00
65973;PMS5003;52729;54.906;73.316;2022-07-10T02:09:47;18.00;18.00;9.75
65973;PMS5003;52729;54.906;73.316;2022-07-10T02:12:48;17.75;17.25;8.25
65973;PMS5003;52729;54.906;73.316;2022-07-10T02:15:49;17.50;17.00;9.00
65973;PMS5003;52729;54.906;73.316;2022-07-10T02:18:55;19.25;18.00;7.50
65973;PMS5003;52729;54.906;73.316;2022-07-10T02:21:57;22.00;20.00;9.00
65973;PMS5003;52729;54.906;73.316;2022-07-10T02:25:03;19.00;17.00;8.00
65973;PMS5003;52729;54.906;73.316;2022-07-10T02:28:05;18.00;17.00;10.00
65973;PMS5003;52729;54.906;73.316;2022-07-10T02:31:06;16.25;15.50;7.00
65973;PMS5003;52729;54.906;73.316;2022-07-10T02:34:08;16.25;15.25;8.50
65973;PMS5003;52729;54.906;73.316;2022-07-10T02:37:20;19.50;18.50;9.75
65973;PMS5003;52729;54.906;73.316;2022-07-10T02:40:21;19.75;17.50;9.50
65973;PMS5003;52729;54.906;73.316;2022-07-10T02:43:21;20.00;19.00;10.00
65973;PMS5003;52729;54.906;73.316;2022-07-10T02:46:23;21.00;21.00;9.00
65973;PMS5003;52729;54.906;73.316;2022-07-10T02:49:24;17.00;17.00;7.00
65973;PMS5003;52729;54.906;73.316;2022-07-10T02:52:25;20.25;20.25;9.50
65973;PMS5003;52729;54.906;73.316;2022-07-10T02:55:26;21.00;19.00;9.00
65973;PMS5003;52729;54.906;73.316;2022-07-10T02:58:28;20.00;18.00;8.25
65973;PMS5003;52729;54.906;73.316;2022-07-10T03:01:39;20.25;19.25;8.00
65973;PMS5003;52729;54.906;73.316;2022-07-10T03:04:40;17.50;17.50;8.00
65973;PMS5003;52729;54.906;73.316;2022-07-10T03:07:41;18.25;17.50;10.00
65973;PMS5003;52729;54.906;73.316;2022-07-10T03:10:42;19.25;19.00;10.00
65973;PMS5003;52729;54.906;73.316;2022-07-10T03:13:43;17.50;16.50;8.00
65973;PMS5003;52729;54.906;73.316;2022-07-10T03:16:44;16.00;15.00;7.75
65973;PMS5003;52729;54.906;73.316;2022-07-10T03:19:45;20.00;18.00;8.25
65973;PMS5003;52729;54.906;73.316;2022-07-10T03:22:47;20.00;17.00;8.75
65973;PMS5003;52729;54.906;73.316;2022-07-10T03:25:48;20.00;18.00;8.00
65973;PMS5003;52729;54.906;73.316;2022-07-10T03:29:04;19.00;19.00;8.25
65973;PMS5003;52729;54.906;73.316;2022-07-10T03:32:05;20.50;19.75;8.75
65973;PMS5003;52729;54.906;73.316;2022-07-10T03:35:06;20.00;19.00;10.50
65973;PMS5003;52729;54.906;73.316;2022-07-10T03:38:08;22.00;21.00;12.00
65973;PMS5003;52729;54.906;73.316;2022-07-10T03:41:09;19.25;18.75;9.50
65973;PMS5003;52729;54.906;73.316;2022-07-10T03:44:10;19.00;18.00;8.25
65973;PMS5003;52729;54.906;73.316;2022-07-10T03:47:11;17.00;16.00;8.00
65973;PMS5003;52729;54.906;73.316;2022-07-10T03:50:12;16.00;16.00;8.25
65973;PMS5003;52729;54.906;73.316;2022-07-10T03:53:13;21.00;21.00;10.50
65973;PMS5003;52729;54.906;73.316;2022-07-10T03:56:14;17.00;17.00;8.00
65973;PMS5003;52729;54.906;73.316;2022-07-10T03:59:37;16.00;16.00;7.00
65973;PMS5003;52729;54.906;73.316;2022-07-10T04:02:48;16.00;16.00;7.50
65973;PMS5003;52729;54.906;73.316;2022-07-10T04:05:49;17.25;17.25;9.00
65973;PMS5003;52729;54.906;73.316;2022-07-10T04:09:01;17.25;17.25;8.75
65973;PMS5003;52729;54.906;73.316;2022-07-10T04:12:04;18.00;18.00;9.00
65973;PMS5003;52729;54.906;73.316;2022-07-10T04:15:10;18.00;17.00;8.25
65973;PMS5003;52729;54.906;73.316;2022-07-10T04:18:11;18.00;18.00;8.00
65973;PMS5003;52729;54.906;73.316;2022-07-10T04:21:13;13.50;13.50;7.00
65973;PMS5003;52729;54.906;73.316;2022-07-10T04:24:14;15.00;15.00;9.00
65973;PMS5003;52729;54.906;73.316;2022-07-10T04:27:15;14.25;14.25;7.50
65973;PMS5003;52729;54.906;73.316;2022-07-10T04:30:17;17.00;17.00;7.75
65973;PMS5003;52729;54.906;73.316;2022-07-10T04:33:18;17.75;17.50;8.25
65973;PMS5003;52729;54.906;73.316;2022-07-10T04:36:20;17.50;16.50;6.25
65973;PMS5003;52729;54.906;73.316;2022-07-10T04:39:32;16.00;15.75;6.75
65973;PMS5003;52729;54.906;73.316;2022-07-10T04:42:33;15.00;14.75;5.00
65973;PMS5003;52729;54.906;73.316;2022-07-10T04:45:34;15.00;15.00;6.25
65973;PMS5003;52729;54.906;73.316;2022-07-10T04:48:39;13.00;13.00;4.50
65973;PMS5003;52729;54.906;73.316;2022-07-10T04:51:41;12.00;11.25;5.00
65973;PMS5003;52729;54.906;73.316;2022-07-10T04:54:42;12.75;11.75;5.00
65973;PMS5003;52729;54.906;73.316;2022-07-10T04:57:43;9.00;7.75;4.50
65973;PMS5003;52729;54.906;73.316;2022-07-10T05:00:45;10.00;9.00;5.00
65973;PMS5003;52729;54.906;73.316;2022-07-10T05:03:55;9.50;9.00;7.00
65973;PMS5003;52729;54.906;73.316;2022-07-10T05:07:01;10.50;9.75;6.00
65973;PMS5003;52729;54.906;73.316;2022-07-10T05:10:02;10.00;9.00;4.00
65973;PMS5003;52729;54.906;73.316;2022-07-10T05:13:13;8.50;8.50;3.00
65973;PMS5003;52729;54.906;73.316;2022-07-10T05:16:15;6.25;6.25;3.00
65973;PMS5003;52729;54.906;73.316;2022-07-10T05:19:17;9.25;8.75;3.75
65973;PMS5003;52729;54.906;73.316;2022-07-10T05:22:20;9.00;9.00;5.50
65973;PMS5003;52729;54.906;73.316;2022-07-10T05:25:21;10.25;8.25;3.00
65973;PMS5003;52729;54.906;73.316;2022-07-10T05:28:22;8.00;8.00;4.00
65973;PMS5003;52729;54.906;73.316;2022-07-10T05:31:23;8.25;8.25;4.00
65973;PMS5003;52729;54.906;73.316;2022-07-10T05:34:24;10.00;9.00;4.00
65973;PMS5003;52729;54.906;73.316;2022-07-10T05:37:28;9.50;8.50;5.00
65973;PMS5003;52729;54.906;73.316;2022-07-10T05:40:34;9.00;8.00;4.75
65973;PMS5003;52729;54.906;73.316;2022-07-10T05:43:45;9.00;9.00;4.00
65973;PMS5003;52729;54.906;73.316;2022-07-10T05:46:46;8.50;8.00;4.00
65973;PMS5003;52729;54.906;73.316;2022-07-10T05:49:52;9.25;9.00;5.00
65973;PMS5003;52729;54.906;73.316;2022-07-10T05:53:04;9.75;9.75;4.00
65973;PMS5003;52729;54.906;73.316;2022-07-10T05:56:05;10.25;10.25;5.00
65973;PMS5003;52729;54.906;73.316;2022-07-10T05:59:06;7.25;7.00;3.25
65973;PMS5003;52729;54.906;73.316;2022-07-10T06:02:07;10.00;8.00;4.00
65973;PMS5003;52729;54.906;73.316;2022-07-10T06:05:09;11.25;10.00;5.00
65973;PMS5003;52729;54.906;73.316;2022-07-10T06:08:21;11.25;11.25;5.00
65973;PMS5003;52729;54.906;73.316;2022-07-10T06:11:21;11.00;10.75;4.00
65973;PMS5003;52729;54.906;73.316;2022-07-10T06:14:22;9.75;9.00;4.00
65973;PMS5003;52729;54.906;73.316;2022-07-10T06:17:24;9.50;9.50;5.00
65973;PMS5003;52729;54.906;73.316;2022-07-10T06:20:25;10.00;10.00;4.00
65973;PMS5003;52729;54.906;73.316;2022-07-10T06:23:32;9.00;9.00;4.00
65973;PMS5003;52729;54.906;73.316;2022-07-10T06:26:32;10.50;10.50;6.00
65973;PMS5003;52729;54.906;73.316;2022-07-10T06:29:34;12.00;12.00;5.00
65973;PMS5003;52729;54.906;73.316;2022-07-10T06:32:36;11.00;10.25;4.50
65973;PMS5003;52729;54.906;73.316;2022-07-10T06:35:37;12.50;12.00;5.00
65973;PMS5003;52729;54.906;73.316;2022-07-10T06:38:38;12.00;11.00;5.00
65973;PMS5003;52729;54.906;73.316;2022-07-10T06:41:39;11.00;10.00;5.25
65973;PMS5003;52729;54.906;73.316;2022-07-10T06:44:45;11.00;10.00;5.50
65973;PMS5003;52729;54.906;73.316;2022-07-10T06:47:46;13.00;12.00;6.50
65973;PMS5003;52729;54.906;73.316;2022-07-10T06:51:01;14.50;13.75;6.00
65973;PMS5003;52729;54.906;73.316;2022-07-10T06:54:02;13.25;13.25;5.00
65973;PMS5003;52729;54.906;73.316;2022-07-10T06:57:04;13.50;13.50;4.25
65973;PMS5003;52729;54.906;73.316;2022-07-10T07:00:16;9.00;9.00;4.00
65973;PMS5003;52729;54.906;73.316;2022-07-10T07:03:17;8.50;8.50;3.75
65973;PMS5003;52729;54.906;73.316;2022-07-10T07:06:18;11.00;10.00;5.00
65973;PMS5003;52729;54.906;73.316;2022-07-10T07:09:19;10.00;10.00;4.00
65973;PMS5003;52729;54.906;73.316;2022-07-10T07:12:31;9.00;9.00;4.00
65973;PMS5003;52729;54.906;73.316;2022-07-10T07:15:37;12.50;11.25;6.50
65973;PMS5003;52729;54.906;73.316;2022-07-10T07:18:43;12.25;10.75;5.00
65973;PMS5003;52729;54.906;73.316;2022-07-10T07:21:49;15.25;13.75;6.50
65973;PMS5003;52729;54.906;73.316;2022-07-10T07:25:10;13.00;10.75;4.00
65973;PMS5003;52729;54.906;73.316;2022-07-10T07:28:22;10.00;9.75;4.00
65973;PMS5003;52729;54.906;73.316;2022-07-10T07:31:23;11.00;10.50;4.75
65973;PMS5003;52729;54.906;73.316;2022-07-10T07:34:24;11.00;9.50;5.00
65973;PMS5003;52729;54.906;73.316;2022-07-10T07:37:42;9.50;9.50;5.00
65973;PMS5003;52729;54.906;73.316;2022-07-10T07:40:49;12.00;12.00;5.00
65973;PMS5003;52729;54.906;73.316;2022-07-10T07:43:50;7.50;7.50;3.00
65973;PMS5003;52729;54.906;73.316;2022-07-10T07:46:51;9.00;8.00;4.75
65973;PMS5003;52729;54.906;73.316;2022-07-10T07:50:01;11.50;11.50;5.00
65973;PMS5003;52729;54.906;73.316;2022-07-10T07:53:13;11.25;10.25;5.00
65973;PMS5003;52729;54.906;73.316;2022-07-10T07:56:14;9.00;8.00;4.00
65973;PMS5003;52729;54.906;73.316;2022-07-10T07:59:21;9.75;9.00;4.25
65973;PMS5003;52729;54.906;73.316;2022-07-10T08:02:27;11.00;10.00;5.00
65973;PMS5003;52729;54.906;73.316;2022-07-10T08:05:29;9.00;8.00;4.00
65973;PMS5003;52729;54.906;73.316;2022-07-10T08:08:30;8.00;8.00;4.00
65973;PMS5003;52729;54.906;73.316;2022-07-10T08:11:37;9.00;7.00;4.00
65973;PMS5003;52729;54.906;73.316;2022-07-10T08:14:38;7.50;7.50;4.25
65973;PMS5003;52729;54.906;73.316;2022-07-10T08:17:39;8.50;8.50;3.00
65973;PMS5003;52729;54.906;73.316;2022-07-10T08:20:51;8.25;8.25;3.00
65973;PMS5003;52729;54.906;73.316;2022-07-10T08:23:52;6.75;6.75;3.00
65973;PMS5003;52729;54.906;73.316;2022-07-10T08:26:54;7.50;7.50;3.00
65973;PMS5003;52729;54.906;73.316;2022-07-10T08:30:11;8.00;8.00;4.00
65973;PMS5003;52729;54.906;73.316;2022-07-10T08:33:18;9.00;9.00;5.75
65973;PMS5003;52729;54.906;73.316;2022-07-10T08:36:19;7.50;7.50;3.00
65973;PMS5003;52729;54.906;73.316;2022-07-10T08:39:21;8.00;7.50;4.00
65973;PMS5003;52729;54.906;73.316;2022-07-10T08:42:28;8.25;8.25;4.00
65973;PMS5003;52729;54.906;73.316;2022-07-10T08:45:38;8.25;8.25;4.75
65973;PMS5003;52729;54.906;73.316;2022-07-10T08:48:41;11.00;10.25;3.75
65973;PMS5003;52729;54.906;73.316;2022-07-10T08:55:15;11.00;7.25;4.00
65973;PMS5003;52729;54.906;73.316;2022-07-10T08:58:17;8.50;8.50;5.00
65973;PMS5003;52729;54.906;73.316;2022-07-10T09:01:19;7.75;7.75;4.00
65973;PMS5003;52729;54.906;73.316;2022-07-10T09:04:24;9.00;9.00;5.00
65973;PMS5003;52729;54.906;73.316;2022-07-10T09:07:33;9.00;9.00;5.00
65973;PMS5003;52729;54.906;73.316;2022-07-10T09:10:40;9.25;8.50;5.00
65973;PMS5003;52729;54.906;73.316;2022-07-10T09:13:51;10.00;10.00;4.00
65973;PMS5003;52729;54.906;73.316;2022-07-10T09:17:02;8.00;8.00;4.00
65973;PMS5003;52729;54.906;73.316;2022-07-10T09:20:04;8.50;8.50;5.00
65973;PMS5003;52729;54.906;73.316;2022-07-10T09:23:21;10.00;9.00;5.00
65973;PMS5003;52729;54.906;73.316;2022-07-10T09:26:23;11.00;8.50;5.00
65973;PMS5003;52729;54.906;73.316;2022-07-10T09:29:24;8.50;7.75;5.00
65973;PMS5003;52729;54.906;73.316;2022-07-10T09:32:25;10.00;9.00;4.25
65973;PMS5003;52729;54.906;73.316;2022-07-10T09:35:26;8.25;8.25;4.00
65973;PMS5003;52729;54.906;73.316;2022-07-10T09:38:50;10.50;10.50;4.50
65973;PMS5003;52729;54.906;73.316;2022-07-10T09:41:52;7.00;7.00;4.00
65973;PMS5003;52729;54.906;73.316;2022-07-10T09:45:12;8.00;8.00;4.00
65973;PMS5003;52729;54.906;73.316;2022-07-10T09:48:18;8.00;8.00;4.50
65973;PMS5003;52729;54.906;73.316;2022-07-10T09:51:24;5.75;5.75;3.50
65973;PMS5003;52729;54.906;73.316;2022-07-10T09:54:25;6.00;6.00;2.00
65973;PMS5003;52729;54.906;73.316;2022-07-10T09:57:27;5.25;5.25;2.00
65973;PMS5003;52729;54.906;73.316;2022-07-10T10:03:35;9.00;8.00;4.00
65973;PMS5003;52729;54.906;73.316;2022-07-10T10:06:36;9.00;6.50;4.00
65973;PMS5003;52729;54.906;73.316;2022-07-10T10:09:45;7.25;7.00;4.00
65973;PMS5003;52729;54.906;73.316;2022-07-10T10:12:48;10.25;9.25;4.25
65973;PMS5003;52729;54.906;73.316;2022-07-10T10:15:52;10.50;8.50;5.00
65973;PMS5003;52729;54.906;73.316;2022-07-10T10:18:53;8.00;8.00;5.00
65973;PMS5003;52729;54.906;73.316;2022-07-10T10:22:14;9.00;9.00;5.50
65973;PMS5003;52729;54.906;73.316;2022-07-10T10:25:16;9.75;9.75;5.00
65973;PMS5003;52729;54.906;73.316;2022-07-10T10:28:17;9.00;9.00;3.00
65973;PMS5003;52729;54.906;73.316;2022-07-10T10:31:24;7.00;7.00;2.75
65973;PMS5003;52729;54.906;73.316;2022-07-10T10:34:39;10.00;10.00;4.00
65973;PMS5003;52729;54.906;73.316;2022-07-10T10:37:42;7.00;7.00;3.00
65973;PMS5003;52729;54.906;73.316;2022-07-10T10:40:45;9.00;8.25;4.00
65973;PMS5003;52729;54.906;73.316;2022-07-10T10:47:13;8.00;8.00;3.00
65973;PMS5003;52729;54.906;73.316;2022-07-10T10:50:29;9.50;9.50;5.00
65973;PMS5003;52729;54.906;73.316;2022-07-10T10:53:35;12.00;12.00;5.00
65973;PMS5003;52729;54.906;73.316;2022-07-10T10:56:36;11.00;11.00;6.00
65973;PMS5003;52729;54.906;73.316;2022-07-10T11:02:50;9.50;9.50;6.00
65973;PMS5003;52729;54.906;73.316;2022-07-10T11:06:12;9.25;9.25;5.00
65973;PMS5003;52729;54.906;73.316;2022-07-10T11:09:21;11.00;10.00;5.00
65973;PMS5003;52729;54.906;73.316;2022-07-10T11:12:23;12.00;12.00;7.00
65973;PMS5003;52729;54.906;73.316;2022-07-10T11:15:24;10.00;9.00;4.75
65973;PMS5003;52729;54.906;73.316;2022-07-10T11:18:35;11.00;10.00;5.00
65973;PMS5003;52729;54.906;73.316;2022-07-10T11:21:45;9.00;8.00;4.00
65973;PMS5003;52729;54.906;73.316;2022-07-10T11:28:07;9.25;9.00;5.00
65973;PMS5003;52729;54.906;73.316;2022-07-10T11:31:12;14.00;13.00;7.00
65973;PMS5003;52729;54.906;73.316;2022-07-10T11:34:13;11.50;11.50;6.00
65973;PMS5003;52729;54.906;73.316;2022-07-10T11:37:15;10.50;10.00;6.00
65973;PMS5003;52729;54.906;73.316;2022-07-10T11:40:16;11.50;11.50;6.00
65973;PMS5003;52729;54.906;73.316;2022-07-10T11:43:20;13.00;13.00;6.00
65973;PMS5003;52729;54.906;73.316;2022-07-10T11:46:25;11.00;11.00;5.00
65973;PMS5003;52729;54.906;73.316;2022-07-10T11:49:26;11.00;10.25;5.00
65973;PMS5003;52729;54.906;73.316;2022-07-10T11:52:27;10.00;9.00;4.00
65973;PMS5003;52729;54.906;73.316;2022-07-10T11:55:29;8.50;8.50;3.00
65973;PMS5003;52729;54.906;73.316;2022-07-10T11:58:31;8.25;8.25;4.75
65973;PMS5003;52729;54.906;73.316;2022-07-10T12:01:33;6.00;6.00;4.00
65973;PMS5003;52729;54.906;73.316;2022-07-10T12:04:34;9.75;9.75;6.00
65973;PMS5003;52729;54.906;73.316;2022-07-10T12:07:35;12.50;12.50;7.00
65973;PMS5003;52729;54.906;73.316;2022-07-10T12:10:38;12.50;12.50;5.50
65973;PMS5003;52729;54.906;73.316;2022-07-10T12:13:42;13.75;13.00;6.50
65973;PMS5003;52729;54.906;73.316;2022-07-10T12:16:44;14.00;14.00;5.00
65973;PMS5003;52729;54.906;73.316;2022-07-10T12:19:45;17.00;15.00;5.00
65973;PMS5003;52729;54.906;73.316;2022-07-10T12:22:48;13.00;12.00;4.00
65973;PMS5003;52729;54.906;73.316;2022-07-10T12:25:49;9.00;8.00;4.00
65973;PMS5003;52729;54.906;73.316;2022-07-10T12:28:55;9.00;8.00;3.25
65973;PMS5003;52729;54.906;73.316;2022-07-10T12:31:58;9.00;9.00;4.75
65973;PMS5003;52729;54.906;73.316;2022-07-10T12:35:00;10.75;10.00;5.00
65973;PMS5003;52729;54.906;73.316;2022-07-10T12:38:01;10.50;10.50;5.50
65973;PMS5003;52729;54.906;73.316;2022-07-10T12:44:35;12.25;12.25;5.00
65973;PMS5003;52729;54.906;73.316;2022-07-10T12:47:44;10.00;9.75;3.50
65973;PMS5003;52729;54.906;73.316;2022-07-10T12:50:45;11.00;9.50;5.00
65973;PMS5003;52729;54.906;73.316;2022-07-10T12:53:46;12.00;12.00;6.25
65973;PMS5003;52729;54.906;73.316;2022-07-10T12:56:48;13.25;13.25;6.25
65973;PMS5003;52729;54.906;73.316;2022-07-10T13:00:04;15.00;15.00;6.00
65973;PMS5003;52729;54.906;73.316;2022-07-10T13:03:06;15.00;15.00;7.00
65973;PMS5003;52729;54.906;73.316;2022-07-10T13:06:24;13.00;11.00;5.00
65973;PMS5003;52729;54.906;73.316;2022-07-10T13:09:25;11.00;10.50;5.00
65973;PMS5003;52729;54.906;73.316;2022-07-10T13:12:27;13.75;13.75;6.75
65973;PMS5003;52729;54.906;73.316;2022-07-10T13:15:28;13.00;13.00;5.75
65973;PMS5003;52729;54.906;73.316;2022-07-10T13:18:29;13.00;13.00;6.00
65973;PMS5003;52729;54.906;73.316;2022-07-10T13:21:37;13.00;13.00;6.00
65973;PMS5003;52729;54.906;73.316;2022-07-10T13:24:48;11.00;10.00;4.00
65973;PMS5003;52729;54.906;73.316;2022-07-10T13:27:49;11.25;10.25;4.00
65973;PMS5003;52729;54.906;73.316;2022-07-10T13:30:52;12.00;12.00;5.00
65973;PMS5003;52729;54.906;73.316;2022-07-10T13:33:58;12.50;11.50;4.25
65973;PMS5003;52729;54.906;73.316;2022-07-10T13:37:00;10.50;9.25;4.50
65973;PMS5003;52729;54.906;73.316;2022-07-10T13:40:01;9.50;9.25;6.00
65973;PMS5003;52729;54.906;73.316;2022-07-10T13:43:13;12.00;12.00;7.00
65973;PMS5003;52729;54.906;73.316;2022-07-10T13:46:27;13.25;13.25;7.00
65973;PMS5003;52729;54.906;73.316;2022-07-10T13:49:31;13.50;13.00;5.00
65973;PMS5003;52729;54.906;73.316;2022-07-10T13:52:32;13.50;13.50;6.00
65973;PMS5003;52729;54.906;73.316;2022-07-10T13:55:33;13.00;12.00;5.00
65973;PMS5003;52729;54.906;73.316;2022-07-10T13:58:45;13.25;12.25;6.00
65973;PMS5003;52729;54.906;73.316;2022-07-10T14:01:46;13.25;12.25;6.00
65973;PMS5003;52729;54.906;73.316;2022-07-10T14:04:47;11.00;10.00;5.50
65973;PMS5003;52729;54.906;73.316;2022-07-10T14:07:48;10.00;9.25;5.00
65973;PMS5003;52729;54.906;73.316;2022-07-10T14:10:51;9.50;9.25;4.00
65973;PMS5003;52729;54.906;73.316;2022-07-10T14:13:52;11.00;11.00;5.00
65973;PMS5003;52729;54.906;73.316;2022-07-10T14:16:53;14.50;14.25;6.75
65973;PMS5003;52729;54.906;73.316;2022-07-10T14:19:54;15.00;15.00;6.00
65973;PMS5003;52729;54.906;73.316;2022-07-10T14:22:57;13.00;13.00;5.25
65973;PMS5003;52729;54.906;73.316;2022-07-10T14:25:58;15.00;14.00;6.50
65973;PMS5003;52729;54.906;73.316;2022-07-10T14:28:59;14.00;12.50;5.00
65973;PMS5003;52729;54.906;73.316;2022-07-10T14:32:02;16.50;15.50;6.50
65973;PMS5003;52729;54.906;73.316;2022-07-10T14:35:09;15.00;13.50;5.50
65973;PMS5003;52729;54.906;73.316;2022-07-10T14:38:10;16.00;14.00;7.25
65973;PMS5003;52729;54.906;73.316;2022-07-10T14:41:17;16.00;14.50;7.50
65973;PMS5003;52729;54.906;73.316;2022-07-10T14:44:18;19.50;18.00;9.00
65973;PMS5003;52729;54.906;73.316;2022-07-10T14:47:24;19.00;18.00;8.00
65973;PMS5003;52729;54.906;73.316;2022-07-10T14:50:36;17.00;16.00;7.50
65973;PMS5003;52729;54.906;73.316;2022-07-10T14:53:42;17.00;16.00;7.00
65973;PMS5003;52729;54.906;73.316;2022-07-10T14:56:45;17.50;17.50;8.50
65973;PMS5003;52729;54.906;73.316;2022-07-10T14:59:47;19.50;18.50;11.50
65973;PMS5003;52729;54.906;73.316;2022-07-10T15:02:48;17.00;17.00;8.50
65973;PMS5003;52729;54.906;73.316;2022-07-10T15:05:54;17.00;16.00;8.00
65973;PMS5003;52729;54.906;73.316;2022-07-10T15:09:02;19.00;17.75;8.25
65973;PMS5003;52729;54.906;73.316;2022-07-10T15:12:14;18.50;18.50;9.75
65973;PMS5003;52729;54.906;73.316;2022-07-10T15:15:15;22.00;21.00;12.00
65973;PMS5003;52729;54.906;73.316;2022-07-10T15:18:17;19.75;19.75;9.75
65973;PMS5003;52729;54.906;73.316;2022-07-10T15:21:19;19.25;19.25;10.25
65973;PMS5003;52729;54.906;73.316;2022-07-10T15:24:20;19.00;19.00;10.00
65973;PMS5003;52729;54.906;73.316;2022-07-10T15:27:27;23.00;23.00;12.00
65973;PMS5003;52729;54.906;73.316;2022-07-10T15:30:38;23.25;21.50;12.50
65973;PMS5003;52729;54.906;73.316;2022-07-10T15:33:39;26.00;23.00;13.25
65973;PMS5003;52729;54.906;73.316;2022-07-10T15:36:55;23.25;21.00;13.00
65973;PMS5003;52729;54.906;73.316;2022-07-10T15:39:56;24.75;23.00;14.75
65973;PMS5003;52729;54.906;73.316;2022-07-10T15:42:57;24.00;24.00;15.75
65973;PMS5003;52729;54.906;73.316;2022-07-10T15:45:58;24.50;21.75;15.00
65973;PMS5003;52729;54.906;73.316;2022-07-10T15:49:00;23.50;22.75;14.00
65973;PMS5003;52729;54.906;73.316;2022-07-10T15:52:01;26.00;25.00;15.00
65973;PMS5003;52729;54.906;73.316;2022-07-10T15:55:02;21.00;21.00;12.00
65973;PMS5003;52729;54.906;73.316;2022-07-10T15:58:03;19.50;19.50;13.00
65973;PMS5003;52729;54.906;73.316;2022-07-10T16:01:04;22.75;22.25;12.00
65973;PMS5003;52729;54.906;73.316;2022-07-10T16:04:15;21.00;20.00;11.00
65973;PMS5003;52729;54.906;73.316;2022-07-10T16:07:16;21.00;21.00;12.50
65973;PMS5003;52729;54.906;73.316;2022-07-10T16:10:22;20.00;19.50;10.50
65973;PMS5003;52729;54.906;73.316;2022-07-10T16:13:23;20.50;20.25;12.00
65973;PMS5003;52729;54.906;73.316;2022-07-10T16:16:24;21.25;21.00;11.00
65973;PMS5003;52729;54.906;73.316;2022-07-10T16:19:30;21.75;19.75;10.50
65973;PMS5003;52729;54.906;73.316;2022-07-10T16:22:36;22.50;21.25;13.00
65973;PMS5003;52729;54.906;73.316;2022-07-10T16:25:37;20.50;20.25;13.00
65973;PMS5003;52729;54.906;73.316;2022-07-10T16:28:56;21.00;20.00;13.25
65973;PMS5003;52729;54.906;73.316;2022-07-10T16:31:57;25.25;21.50;12.75
65973;PMS5003;52729;54.906;73.316;2022-07-10T16:34:59;24.50;22.00;12.75
65973;PMS5003;52729;54.906;73.316;2022-07-10T16:38:11;25.50;23.50;15.50
65973;PMS5003;52729;54.906;73.316;2022-07-10T16:41:25;25.00;22.50;14.75
65973;PMS5003;52729;54.906;73.316;2022-07-10T16:44:27;25.00;23.25;16.00
65973;PMS5003;52729;54.906;73.316;2022-07-10T16:47:28;22.50;22.50;16.50
65973;PMS5003;52729;54.906;73.316;2022-07-10T16:50:37;24.00;24.00;17.50
65973;PMS5003;52729;54.906;73.316;2022-07-10T16:53:39;26.00;25.00;17.00
65973;PMS5003;52729;54.906;73.316;2022-07-10T16:56:40;22.00;22.00;15.50
65973;PMS5003;52729;54.906;73.316;2022-07-10T16:59:41;20.75;20.50;13.00
65973;PMS5003;52729;54.906;73.316;2022-07-10T17:02:42;22.50;20.50;14.00
65973;PMS5003;52729;54.906;73.316;2022-07-10T17:05:49;25.00;24.25;15.25
65973;PMS5003;52729;54.906;73.316;2022-07-10T17:08:51;23.75;23.75;15.00
65973;PMS5003;52729;54.906;73.316;2022-07-10T17:11:52;25.00;23.00;13.00
65973;PMS5003;52729;54.906;73.316;2022-07-10T17:14:53;22.50;19.50;11.00
65973;PMS5003;52729;54.906;73.316;2022-07-10T17:17:54;24.00;22.00;15.00
65973;PMS5003;52729;54.906;73.316;2022-07-10T17:20:55;24.00;22.75;16.00
65973;PMS5003;52729;54.906;73.316;2022-07-10T17:23:56;22.00;22.00;15.00
65973;PMS5003;52729;54.906;73.316;2022-07-10T17:26:58;20.75;20.00;15.00
65973;PMS5003;52729;54.906;73.316;2022-07-10T17:30:05;23.50;20.75;14.00
65973;PMS5003;52729;54.906;73.316;2022-07-10T17:33:06;21.00;20.00;13.50
65973;PMS5003;52729;54.906;73.316;2022-07-10T17:36:15;24.50;22.50;12.50